Archival Weather

Norman Y Mineta San Jose Intl

San Jose, California (KSJC)

Report from: Tuesday, February 13, 2024 1:53 PM PST
Current time: Friday, June 21, 2024 12:06 AM PDT

Current weather – Weather history – Daily summaries
Weather forecast

Temperature17.8°C (64.0°F)
Dew point6.7°C (44.1°F)
Winds 7 kts (3.6 m/s, 8.1 mph) North-Northeast (20°)
Visibility10 mi. (16.1 km)
Clouds Few clouds 3,500 ft. (1,067 m)
Scattered clouds 5,500 ft. (1,676 m)
Ceiling: Broken clouds 9,000 ft. (2,743 m)
Altimeter30.00 in.Hg (1016 mB)
Relative humidity48 %
Density altitude383 ft. (117 m)
Sea-level pressure101.6 kPa (1016 mB, 30.00 in.Hg)
Remarks Automated weather observing station with precipitation discriminator
Flight conditions Visual Meteorological Conditions
Raw dataKSJC 132153Z 02007KT 10SM FEW035 SCT055 BKN090 18/07 A3000 RMK AO2 SLP159 T01780067
An error has occurred. This application may no longer respond until reloaded. Reload 🗙